sensor_id;sensor_type;location;lat;lon;timestamp;P1;durP1;ratioP1;P2;durP2;ratioP2
22164;SDS011;11248;52.512;13.520;2023-07-29T00:01:40;6.45;;;3.92;;
22164;SDS011;11248;52.512;13.520;2023-07-29T00:04:06;4.75;;;3.83;;
22164;SDS011;11248;52.512;13.520;2023-07-29T00:06:33;4.20;;;3.80;;
22164;SDS011;11248;52.512;13.520;2023-07-29T00:08:59;4.68;;;3.95;;
22164;SDS011;11248;52.512;13.520;2023-07-29T00:11:25;5.22;;;4.07;;
22164;SDS011;11248;52.512;13.520;2023-07-29T00:13:51;5.93;;;4.03;;
22164;SDS011;11248;52.512;13.520;2023-07-29T00:16:17;5.38;;;4.20;;
22164;SDS011;11248;52.512;13.520;2023-07-29T00:18:46;5.25;;;4.40;;
22164;SDS011;11248;52.512;13.520;2023-07-29T00:21:12;5.28;;;4.10;;
22164;SDS011;11248;52.512;13.520;2023-07-29T00:23:38;5.00;;;3.75;;
22164;SDS011;11248;52.512;13.520;2023-07-29T00:26:04;4.80;;;4.10;;
22164;SDS011;11248;52.512;13.520;2023-07-29T00:28:30;5.40;;;4.65;;
22164;SDS011;11248;52.512;13.520;2023-07-29T00:30:56;5.82;;;4.72;;
22164;SDS011;11248;52.512;13.520;2023-07-29T00:33:22;5.63;;;4.90;;
22164;SDS011;11248;52.512;13.520;2023-07-29T00:35:48;5.93;;;4.65;;
22164;SDS011;11248;52.512;13.520;2023-07-29T00:38:14;8.00;;;5.07;;
22164;SDS011;11248;52.512;13.520;2023-07-29T00:40:40;5.65;;;4.50;;
22164;SDS011;11248;52.512;13.520;2023-07-29T00:43:06;5.28;;;3.90;;
22164;SDS011;11248;52.512;13.520;2023-07-29T00:45:32;5.93;;;5.32;;
22164;SDS011;11248;52.512;13.520;2023-07-29T00:47:58;6.75;;;4.97;;
22164;SDS011;11248;52.512;13.520;2023-07-29T00:50:25;5.70;;;4.47;;
22164;SDS011;11248;52.512;13.520;2023-07-29T00:52:52;5.47;;;4.57;;
22164;SDS011;11248;52.512;13.520;2023-07-29T00:55:18;4.88;;;4.32;;
22164;SDS011;11248;52.512;13.520;2023-07-29T00:57:44;5.72;;;4.50;;
22164;SDS011;11248;52.512;13.520;2023-07-29T01:00:13;5.07;;;3.80;;
22164;SDS011;11248;52.512;13.520;2023-07-29T01:02:39;5.38;;;4.30;;
22164;SDS011;11248;52.512;13.520;2023-07-29T01:05:05;4.15;;;3.75;;
22164;SDS011;11248;52.512;13.520;2023-07-29T01:07:33;5.70;;;4.45;;
22164;SDS011;11248;52.512;13.520;2023-07-29T01:10:10;4.65;;;4.15;;
22164;SDS011;11248;52.512;13.520;2023-07-29T01:13:06;5.28;;;3.75;;
22164;SDS011;11248;52.512;13.520;2023-07-29T01:15:43;5.53;;;3.50;;
22164;SDS011;11248;52.512;13.520;2023-07-29T01:18:11;5.57;;;3.60;;
22164;SDS011;11248;52.512;13.520;2023-07-29T01:20:41;4.28;;;3.88;;
22164;SDS011;11248;52.512;13.520;2023-07-29T01:23:08;4.30;;;3.85;;
22164;SDS011;11248;52.512;13.520;2023-07-29T01:25:33;4.30;;;3.88;;
22164;SDS011;11248;52.512;13.520;2023-07-29T01:27:59;5.25;;;4.15;;
22164;SDS011;11248;52.512;13.520;2023-07-29T01:30:28;4.85;;;4.22;;
22164;SDS011;11248;52.512;13.520;2023-07-29T01:33:09;4.78;;;3.95;;
22164;SDS011;11248;52.512;13.520;2023-07-29T01:35:48;4.70;;;4.20;;
22164;SDS011;11248;52.512;13.520;2023-07-29T01:38:18;4.57;;;4.13;;
22164;SDS011;11248;52.512;13.520;2023-07-29T01:40:45;4.32;;;3.90;;
22164;SDS011;11248;52.512;13.520;2023-07-29T01:43:11;4.38;;;3.95;;
22164;SDS011;11248;52.512;13.520;2023-07-29T01:45:38;4.63;;;4.00;;
22164;SDS011;11248;52.512;13.520;2023-07-29T01:48:05;5.90;;;4.57;;
22164;SDS011;11248;52.512;13.520;2023-07-29T01:50:31;4.80;;;4.30;;
22164;SDS011;11248;52.512;13.520;2023-07-29T01:52:57;6.43;;;4.20;;
22164;SDS011;11248;52.512;13.520;2023-07-29T01:55:23;4.53;;;4.03;;
22164;SDS011;11248;52.512;13.520;2023-07-29T01:57:49;5.07;;;4.45;;
22164;SDS011;11248;52.512;13.520;2023-07-29T02:00:16;4.97;;;4.47;;
22164;SDS011;11248;52.512;13.520;2023-07-29T02:02:42;5.47;;;4.22;;
22164;SDS011;11248;52.512;13.520;2023-07-29T02:05:08;6.00;;;4.15;;
22164;SDS011;11248;52.512;13.520;2023-07-29T02:07:34;6.38;;;4.15;;
22164;SDS011;11248;52.512;13.520;2023-07-29T02:10:00;4.78;;;3.80;;
22164;SDS011;11248;52.512;13.520;2023-07-29T02:12:26;4.18;;;3.60;;
22164;SDS011;11248;52.512;13.520;2023-07-29T02:14:52;4.57;;;3.85;;
22164;SDS011;11248;52.512;13.520;2023-07-29T02:17:18;4.05;;;3.65;;
22164;SDS011;11248;52.512;13.520;2023-07-29T02:19:44;4.68;;;4.28;;
22164;SDS011;11248;52.512;13.520;2023-07-29T02:22:12;6.72;;;4.93;;
22164;SDS011;11248;52.512;13.520;2023-07-29T02:24:39;4.85;;;3.70;;
22164;SDS011;11248;52.512;13.520;2023-07-29T02:27:05;4.97;;;4.20;;
22164;SDS011;11248;52.512;13.520;2023-07-29T02:29:30;4.90;;;4.40;;
22164;SDS011;11248;52.512;13.520;2023-07-29T02:31:57;4.50;;;4.10;;
22164;SDS011;11248;52.512;13.520;2023-07-29T02:34:23;5.20;;;4.68;;
22164;SDS011;11248;52.512;13.520;2023-07-29T02:36:49;5.70;;;4.18;;
22164;SDS011;11248;52.512;13.520;2023-07-29T02:39:15;5.35;;;4.40;;
22164;SDS011;11248;52.512;13.520;2023-07-29T02:41:41;6.70;;;4.38;;
22164;SDS011;11248;52.512;13.520;2023-07-29T02:44:07;5.43;;;4.55;;
22164;SDS011;11248;52.512;13.520;2023-07-29T02:46:33;4.60;;;4.20;;
22164;SDS011;11248;52.512;13.520;2023-07-29T02:48:59;5.97;;;4.90;;
22164;SDS011;11248;52.512;13.520;2023-07-29T02:51:25;5.47;;;4.65;;
22164;SDS011;11248;52.512;13.520;2023-07-29T02:53:51;5.28;;;4.13;;
22164;SDS011;11248;52.512;13.520;2023-07-29T02:56:17;6.03;;;4.65;;
22164;SDS011;11248;52.512;13.520;2023-07-29T02:58:43;5.60;;;4.65;;
22164;SDS011;11248;52.512;13.520;2023-07-29T03:01:09;4.70;;;4.20;;
22164;SDS011;11248;52.512;13.520;2023-07-29T03:03:35;8.07;;;4.88;;
22164;SDS011;11248;52.512;13.520;2023-07-29T03:06:02;4.10;;;3.67;;
22164;SDS011;11248;52.512;13.520;2023-07-29T03:08:28;4.45;;;4.03;;
22164;SDS011;11248;52.512;13.520;2023-07-29T03:10:55;4.93;;;4.40;;
22164;SDS011;11248;52.512;13.520;2023-07-29T03:13:21;4.45;;;3.92;;
22164;SDS011;11248;52.512;13.520;2023-07-29T03:15:47;4.50;;;4.05;;
22164;SDS011;11248;52.512;13.520;2023-07-29T03:18:13;4.35;;;3.30;;
22164;SDS011;11248;52.512;13.520;2023-07-29T03:20:39;3.97;;;3.58;;
22164;SDS011;11248;52.512;13.520;2023-07-29T03:23:05;4.18;;;3.78;;
22164;SDS011;11248;52.512;13.520;2023-07-29T03:25:31;4.72;;;3.70;;
22164;SDS011;11248;52.512;13.520;2023-07-29T03:27:57;5.00;;;3.85;;
22164;SDS011;11248;52.512;13.520;2023-07-29T03:30:23;4.15;;;3.35;;
22164;SDS011;11248;52.512;13.520;2023-07-29T03:32:49;5.28;;;3.97;;
22164;SDS011;11248;52.512;13.520;2023-07-29T03:35:15;7.13;;;4.30;;
22164;SDS011;11248;52.512;13.520;2023-07-29T03:37:41;4.88;;;3.90;;
22164;SDS011;11248;52.512;13.520;2023-07-29T03:40:08;5.53;;;4.75;;
22164;SDS011;11248;52.512;13.520;2023-07-29T03:42:37;4.85;;;4.00;;
22164;SDS011;11248;52.512;13.520;2023-07-29T03:45:03;4.97;;;3.92;;
22164;SDS011;11248;52.512;13.520;2023-07-29T03:47:29;4.60;;;3.60;;
22164;SDS011;11248;52.512;13.520;2023-07-29T03:49:55;5.18;;;3.80;;
22164;SDS011;11248;52.512;13.520;2023-07-29T03:52:21;6.65;;;4.60;;
22164;SDS011;11248;52.512;13.520;2023-07-29T03:54:46;4.65;;;4.15;;
22164;SDS011;11248;52.512;13.520;2023-07-29T03:57:12;6.30;;;4.38;;
22164;SDS011;11248;52.512;13.520;2023-07-29T03:59:38;5.22;;;4.20;;
22164;SDS011;11248;52.512;13.520;2023-07-29T04:02:04;5.22;;;4.72;;
22164;SDS011;11248;52.512;13.520;2023-07-29T04:04:30;6.20;;;4.95;;
22164;SDS011;11248;52.512;13.520;2023-07-29T04:06:56;5.90;;;4.45;;
22164;SDS011;11248;52.512;13.520;2023-07-29T04:09:22;4.63;;;4.15;;
22164;SDS011;11248;52.512;13.520;2023-07-29T04:11:48;5.43;;;4.82;;
22164;SDS011;11248;52.512;13.520;2023-07-29T04:14:14;6.03;;;4.45;;
22164;SDS011;11248;52.512;13.520;2023-07-29T04:16:40;5.78;;;5.18;;
22164;SDS011;11248;52.512;13.520;2023-07-29T04:19:06;4.90;;;4.38;;
22164;SDS011;11248;52.512;13.520;2023-07-29T04:21:32;4.90;;;4.40;;
22164;SDS011;11248;52.512;13.520;2023-07-29T04:23:57;5.40;;;4.63;;
22164;SDS011;11248;52.512;13.520;2023-07-29T04:26:23;4.90;;;4.15;;
22164;SDS011;11248;52.512;13.520;2023-07-29T04:28:49;4.60;;;4.10;;
22164;SDS011;11248;52.512;13.520;2023-07-29T04:31:15;6.60;;;4.70;;
22164;SDS011;11248;52.512;13.520;2023-07-29T04:33:41;5.30;;;4.43;;
22164;SDS011;11248;52.512;13.520;2023-07-29T04:36:07;4.90;;;4.40;;
22164;SDS011;11248;52.512;13.520;2023-07-29T04:38:33;5.95;;;4.72;;
22164;SDS011;11248;52.512;13.520;2023-07-29T04:41:00;5.00;;;4.50;;
22164;SDS011;11248;52.512;13.520;2023-07-29T04:43:30;5.00;;;4.50;;
22164;SDS011;11248;52.512;13.520;2023-07-29T04:45:57;6.10;;;4.50;;
22164;SDS011;11248;52.512;13.520;2023-07-29T04:48:22;5.10;;;4.50;;
22164;SDS011;11248;52.512;13.520;2023-07-29T04:50:48;5.00;;;4.50;;
22164;SDS011;11248;52.512;13.520;2023-07-29T04:53:14;7.13;;;4.70;;
22164;SDS011;11248;52.512;13.520;2023-07-29T04:55:43;5.07;;;4.57;;
22164;SDS011;11248;52.512;13.520;2023-07-29T04:58:10;6.38;;;5.30;;
22164;SDS011;11248;52.512;13.520;2023-07-29T05:00:36;5.00;;;4.40;;
22164;SDS011;11248;52.512;13.520;2023-07-29T05:03:01;4.75;;;4.07;;
22164;SDS011;11248;52.512;13.520;2023-07-29T05:05:27;5.35;;;4.68;;
22164;SDS011;11248;52.512;13.520;2023-07-29T05:07:53;4.95;;;4.13;;
22164;SDS011;11248;52.512;13.520;2023-07-29T05:10:19;5.32;;;4.60;;
22164;SDS011;11248;52.512;13.520;2023-07-29T05:12:45;4.72;;;4.03;;
22164;SDS011;11248;52.512;13.520;2023-07-29T05:15:11;5.18;;;4.68;;
22164;SDS011;11248;52.512;13.520;2023-07-29T05:17:37;4.57;;;3.97;;
22164;SDS011;11248;52.512;13.520;2023-07-29T05:20:03;5.53;;;4.28;;
22164;SDS011;11248;52.512;13.520;2023-07-29T05:22:29;5.57;;;4.30;;
22164;SDS011;11248;52.512;13.520;2023-07-29T05:24:55;5.25;;;4.35;;
22164;SDS011;11248;52.512;13.520;2023-07-29T05:27:21;5.97;;;4.38;;
22164;SDS011;11248;52.512;13.520;2023-07-29T05:29:47;4.97;;;4.28;;
22164;SDS011;11248;52.512;13.520;2023-07-29T05:32:13;5.15;;;4.28;;
22164;SDS011;11248;52.512;13.520;2023-07-29T05:34:38;4.22;;;3.83;;
22164;SDS011;11248;52.512;13.520;2023-07-29T05:37:04;5.30;;;4.68;;
22164;SDS011;11248;52.512;13.520;2023-07-29T05:39:31;4.30;;;3.75;;
22164;SDS011;11248;52.512;13.520;2023-07-29T05:41:58;5.15;;;4.22;;
22164;SDS011;11248;52.512;13.520;2023-07-29T05:44:24;6.13;;;4.03;;
22164;SDS011;11248;52.512;13.520;2023-07-29T05:46:49;6.22;;;4.90;;
22164;SDS011;11248;52.512;13.520;2023-07-29T05:49:15;5.75;;;4.75;;
22164;SDS011;11248;52.512;13.520;2023-07-29T05:51:42;6.93;;;4.57;;
22164;SDS011;11248;52.512;13.520;2023-07-29T05:54:08;8.25;;;4.05;;
22164;SDS011;11248;52.512;13.520;2023-07-29T05:56:34;4.30;;;3.80;;
22164;SDS011;11248;52.512;13.520;2023-07-29T05:59:00;4.00;;;3.53;;
22164;SDS011;11248;52.512;13.520;2023-07-29T06:01:25;3.90;;;3.50;;
22164;SDS011;11248;52.512;13.520;2023-07-29T06:03:51;3.92;;;3.50;;
22164;SDS011;11248;52.512;13.520;2023-07-29T06:06:17;3.80;;;3.42;;
22164;SDS011;11248;52.512;13.520;2023-07-29T06:08:43;4.90;;;3.92;;
22164;SDS011;11248;52.512;13.520;2023-07-29T06:11:09;3.65;;;2.78;;
22164;SDS011;11248;52.512;13.520;2023-07-29T06:13:35;3.35;;;3.05;;
22164;SDS011;11248;52.512;13.520;2023-07-29T06:16:01;4.90;;;3.22;;
22164;SDS011;11248;52.512;13.520;2023-07-29T06:18:27;3.60;;;3.17;;
22164;SDS011;11248;52.512;13.520;2023-07-29T06:20:53;3.85;;;3.40;;
22164;SDS011;11248;52.512;13.520;2023-07-29T06:23:19;4.55;;;3.10;;
22164;SDS011;11248;52.512;13.520;2023-07-29T06:25:44;3.20;;;2.90;;
22164;SDS011;11248;52.512;13.520;2023-07-29T06:28:10;3.17;;;2.88;;
22164;SDS011;11248;52.512;13.520;2023-07-29T06:30:36;3.08;;;2.78;;
22164;SDS011;11248;52.512;13.520;2023-07-29T06:33:02;5.93;;;3.13;;
22164;SDS011;11248;52.512;13.520;2023-07-29T06:35:28;3.88;;;3.20;;
22164;SDS011;11248;52.512;13.520;2023-07-29T06:37:54;2.85;;;2.55;;
22164;SDS011;11248;52.512;13.520;2023-07-29T06:40:20;2.80;;;2.60;;
22164;SDS011;11248;52.512;13.520;2023-07-29T06:42:46;3.40;;;3.10;;
22164;SDS011;11248;52.512;13.520;2023-07-29T06:45:12;3.25;;;2.65;;
22164;SDS011;11248;52.512;13.520;2023-07-29T06:47:38;2.80;;;2.55;;
22164;SDS011;11248;52.512;13.520;2023-07-29T06:50:04;2.47;;;2.28;;
22164;SDS011;11248;52.512;13.520;2023-07-29T06:52:30;3.78;;;2.33;;
22164;SDS011;11248;52.512;13.520;2023-07-29T06:54:56;2.83;;;2.50;;
22164;SDS011;11248;52.512;13.520;2023-07-29T06:57:22;3.53;;;2.92;;
22164;SDS011;11248;52.512;13.520;2023-07-29T06:59:48;3.33;;;2.88;;
22164;SDS011;11248;52.512;13.520;2023-07-29T07:02:14;3.40;;;3.10;;
22164;SDS011;11248;52.512;13.520;2023-07-29T07:04:40;2.40;;;2.20;;
22164;SDS011;11248;52.512;13.520;2023-07-29T07:07:07;2.33;;;2.13;;
22164;SDS011;11248;52.512;13.520;2023-07-29T07:09:33;3.80;;;2.60;;
22164;SDS011;11248;52.512;13.520;2023-07-29T07:11:59;3.53;;;2.28;;
22164;SDS011;11248;52.512;13.520;2023-07-29T07:14:24;3.47;;;2.08;;
22164;SDS011;11248;52.512;13.520;2023-07-29T07:16:50;4.00;;;2.65;;
22164;SDS011;11248;52.512;13.520;2023-07-29T07:19:17;3.05;;;2.53;;
22164;SDS011;11248;52.512;13.520;2023-07-29T07:21:43;2.75;;;2.47;;
22164;SDS011;11248;52.512;13.520;2023-07-29T07:24:12;2.65;;;2.42;;
22164;SDS011;11248;52.512;13.520;2023-07-29T07:26:38;3.97;;;2.47;;
22164;SDS011;11248;52.512;13.520;2023-07-29T07:29:04;2.65;;;2.45;;
22164;SDS011;11248;52.512;13.520;2023-07-29T07:31:32;2.17;;;1.98;;
22164;SDS011;11248;52.512;13.520;2023-07-29T07:33:58;2.70;;;2.30;;
22164;SDS011;11248;52.512;13.520;2023-07-29T07:36:24;3.78;;;2.40;;
22164;SDS011;11248;52.512;13.520;2023-07-29T07:38:50;3.22;;;2.92;;
22164;SDS011;11248;52.512;13.520;2023-07-29T07:41:16;2.60;;;2.40;;
22164;SDS011;11248;52.512;13.520;2023-07-29T07:43:42;2.70;;;2.50;;
22164;SDS011;11248;52.512;13.520;2023-07-29T07:46:07;2.67;;;2.47;;
22164;SDS011;11248;52.512;13.520;2023-07-29T07:48:33;3.00;;;2.70;;
22164;SDS011;11248;52.512;13.520;2023-07-29T07:50:59;3.10;;;2.80;;
22164;SDS011;11248;52.512;13.520;2023-07-29T07:53:25;3.83;;;2.80;;
22164;SDS011;11248;52.512;13.520;2023-07-29T07:55:51;4.13;;;2.40;;
22164;SDS011;11248;52.512;13.520;2023-07-29T07:58:17;2.38;;;2.17;;
22164;SDS011;11248;52.512;13.520;2023-07-29T08:00:43;2.70;;;2.50;;
22164;SDS011;11248;52.512;13.520;2023-07-29T08:03:09;2.40;;;2.20;;
22164;SDS011;11248;52.512;13.520;2023-07-29T08:05:35;3.55;;;2.90;;
22164;SDS011;11248;52.512;13.520;2023-07-29T08:08:01;2.60;;;2.40;;
22164;SDS011;11248;52.512;13.520;2023-07-29T08:10:27;4.25;;;2.25;;
22164;SDS011;11248;52.512;13.520;2023-07-29T08:12:52;3.08;;;2.55;;
22164;SDS011;11248;52.512;13.520;2023-07-29T08:15:18;2.83;;;2.53;;
22164;SDS011;11248;52.512;13.520;2023-07-29T08:17:45;2.10;;;2.00;;
22164;SDS011;11248;52.512;13.520;2023-07-29T08:20:11;2.78;;;2.20;;
22164;SDS011;11248;52.512;13.520;2023-07-29T08:22:37;2.40;;;2.20;;
22164;SDS011;11248;52.512;13.520;2023-07-29T08:25:03;2.92;;;2.67;;
22164;SDS011;11248;52.512;13.520;2023-07-29T08:27:29;3.28;;;2.75;;
22164;SDS011;11248;52.512;13.520;2023-07-29T08:29:55;2.60;;;2.40;;
22164;SDS011;11248;52.512;13.520;2023-07-29T08:32:21;3.20;;;2.90;;
22164;SDS011;11248;52.512;13.520;2023-07-29T08:34:47;2.78;;;2.33;;
22164;SDS011;11248;52.512;13.520;2023-07-29T08:37:16;3.60;;;2.80;;
22164;SDS011;11248;52.512;13.520;2023-07-29T08:39:45;3.00;;;2.70;;
22164;SDS011;11248;52.512;13.520;2023-07-29T08:42:11;2.47;;;2.28;;
22164;SDS011;11248;52.512;13.520;2023-07-29T08:44:41;2.70;;;2.25;;
22164;SDS011;11248;52.512;13.520;2023-07-29T08:47:07;4.35;;;2.38;;
22164;SDS011;11248;52.512;13.520;2023-07-29T08:49:33;2.50;;;2.30;;
22164;SDS011;11248;52.512;13.520;2023-07-29T08:51:59;2.47;;;2.28;;
22164;SDS011;11248;52.512;13.520;2023-07-29T08:54:26;4.15;;;2.47;;
22164;SDS011;11248;52.512;13.520;2023-07-29T08:56:52;2.80;;;2.50;;
22164;SDS011;11248;52.512;13.520;2023-07-29T08:59:18;2.55;;;2.35;;
22164;SDS011;11248;52.512;13.520;2023-07-29T09:01:44;2.33;;;2.10;;
22164;SDS011;11248;52.512;13.520;2023-07-29T09:04:10;2.47;;;2.28;;
22164;SDS011;11248;52.512;13.520;2023-07-29T09:06:36;2.60;;;2.40;;
22164;SDS011;11248;52.512;13.520;2023-07-29T09:09:03;2.90;;;2.53;;
22164;SDS011;11248;52.512;13.520;2023-07-29T09:11:30;2.00;;;1.90;;
22164;SDS011;11248;52.512;13.520;2023-07-29T09:13:56;1.92;;;1.83;;
22164;SDS011;11248;52.512;13.520;2023-07-29T09:16:22;3.25;;;2.28;;
22164;SDS011;11248;52.512;13.520;2023-07-29T09:18:48;4.32;;;2.10;;
22164;SDS011;11248;52.512;13.520;2023-07-29T09:21:26;2.40;;;2.20;;
22164;SDS011;11248;52.512;13.520;2023-07-29T09:23:53;2.28;;;2.08;;
22164;SDS011;11248;52.512;13.520;2023-07-29T09:26:26;2.50;;;1.70;;
22164;SDS011;11248;52.512;13.520;2023-07-29T09:28:53;2.80;;;2.00;;
22164;SDS011;11248;52.512;13.520;2023-07-29T09:31:20;2.38;;;2.05;;
22164;SDS011;11248;52.512;13.520;2023-07-29T09:33:46;2.35;;;2.00;;
22164;SDS011;11248;52.512;13.520;2023-07-29T09:36:11;2.25;;;1.80;;
22164;SDS011;11248;52.512;13.520;2023-07-29T09:38:37;3.30;;;2.30;;
22164;SDS011;11248;52.512;13.520;2023-07-29T09:41:04;2.20;;;2.00;;
22164;SDS011;11248;52.512;13.520;2023-07-29T09:43:31;1.77;;;1.67;;
22164;SDS011;11248;52.512;13.520;2023-07-29T09:46:00;5.22;;;2.00;;
22164;SDS011;11248;52.512;13.520;2023-07-29T09:48:26;2.70;;;2.13;;
22164;SDS011;11248;52.512;13.520;2023-07-29T09:50:54;2.17;;;1.98;;
22164;SDS011;11248;52.512;13.520;2023-07-29T09:53:19;2.08;;;1.60;;
22164;SDS011;11248;52.512;13.520;2023-07-29T09:55:49;2.80;;;2.03;;
22164;SDS011;11248;52.512;13.520;2023-07-29T09:58:19;2.03;;;1.75;;
22164;SDS011;11248;52.512;13.520;2023-07-29T10:00:45;2.25;;;1.77;;
22164;SDS011;11248;52.512;13.520;2023-07-29T10:03:12;1.63;;;1.52;;
22164;SDS011;11248;52.512;13.520;2023-07-29T10:05:38;1.75;;;1.65;;
22164;SDS011;11248;52.512;13.520;2023-07-29T10:08:05;2.13;;;1.63;;
22164;SDS011;11248;52.512;13.520;2023-07-29T10:10:31;2.10;;;1.70;;
22164;SDS011;11248;52.512;13.520;2023-07-29T10:12:57;1.60;;;1.50;;
22164;SDS011;11248;52.512;13.520;2023-07-29T10:15:23;2.08;;;1.85;;
22164;SDS011;11248;52.512;13.520;2023-07-29T10:17:50;4.38;;;1.60;;
22164;SDS011;11248;52.512;13.520;2023-07-29T10:20:16;1.80;;;1.70;;
22164;SDS011;11248;52.512;13.520;2023-07-29T10:22:42;1.67;;;1.58;;
22164;SDS011;11248;52.512;13.520;2023-07-29T10:25:19;1.70;;;1.60;;
22164;SDS011;11248;52.512;13.520;2023-07-29T10:27:47;1.98;;;1.88;;
22164;SDS011;11248;52.512;13.520;2023-07-29T10:30:13;1.90;;;1.52;;
22164;SDS011;11248;52.512;13.520;2023-07-29T10:32:41;1.60;;;1.50;;
22164;SDS011;11248;52.512;13.520;2023-07-29T10:35:08;2.33;;;1.83;;
22164;SDS011;11248;52.512;13.520;2023-07-29T10:37:34;1.95;;;1.70;;
22164;SDS011;11248;52.512;13.520;2023-07-29T10:40:01;1.48;;;1.30;;
22164;SDS011;11248;52.512;13.520;2023-07-29T10:42:31;1.48;;;1.38;;
22164;SDS011;11248;52.512;13.520;2023-07-29T10:44:57;2.15;;;1.42;;
22164;SDS011;11248;52.512;13.520;2023-07-29T10:47:23;1.42;;;1.33;;
22164;SDS011;11248;52.512;13.520;2023-07-29T10:49:50;1.50;;;1.40;;
22164;SDS011;11248;52.512;13.520;2023-07-29T10:52:28;1.98;;;1.35;;
22164;SDS011;11248;52.512;13.520;2023-07-29T10:54:54;1.30;;;1.20;;
22164;SDS011;11248;52.512;13.520;2023-07-29T10:57:36;1.50;;;1.40;;
22164;SDS011;11248;52.512;13.520;2023-07-29T11:00:02;2.10;;;1.30;;
22164;SDS011;11248;52.512;13.520;2023-07-29T11:02:30;1.40;;;1.30;;
22164;SDS011;11248;52.512;13.520;2023-07-29T11:04:57;1.58;;;1.30;;
22164;SDS011;11248;52.512;13.520;2023-07-29T11:07:23;1.40;;;1.30;;
22164;SDS011;11248;52.512;13.520;2023-07-29T11:09:53;1.70;;;1.40;;
22164;SDS011;11248;52.512;13.520;2023-07-29T11:12:34;1.33;;;1.10;;
22164;SDS011;11248;52.512;13.520;2023-07-29T11:15:01;1.52;;;1.38;;
22164;SDS011;11248;52.512;13.520;2023-07-29T11:17:29;2.08;;;1.13;;
22164;SDS011;11248;52.512;13.520;2023-07-29T11:19:55;1.23;;;1.13;;
22164;SDS011;11248;52.512;13.520;2023-07-29T11:22:23;1.38;;;1.20;;
22164;SDS011;11248;52.512;13.520;2023-07-29T11:24:51;1.85;;;1.40;;
22164;SDS011;11248;52.512;13.520;2023-07-29T11:27:17;3.10;;;1.50;;
22164;SDS011;11248;52.512;13.520;2023-07-29T11:29:43;6.25;;;1.60;;
22164;SDS011;11248;52.512;13.520;2023-07-29T11:32:09;3.08;;;1.45;;
22164;SDS011;11248;52.512;13.520;2023-07-29T11:34:35;2.83;;;1.38;;
22164;SDS011;11248;52.512;13.520;2023-07-29T11:37:01;2.78;;;1.52;;
22164;SDS011;11248;52.512;13.520;2023-07-29T11:39:27;1.23;;;0.93;;
22164;SDS011;11248;52.512;13.520;2023-07-29T11:41:53;1.98;;;0.85;;
22164;SDS011;11248;52.512;13.520;2023-07-29T11:44:19;2.00;;;1.10;;
22164;SDS011;11248;52.512;13.520;2023-07-29T11:46:44;1.85;;;0.63;;
22164;SDS011;11248;52.512;13.520;2023-07-29T11:49:13;1.17;;;0.75;;
22164;SDS011;11248;52.512;13.520;2023-07-29T11:51:39;1.15;;;0.80;;
22164;SDS011;11248;52.512;13.520;2023-07-29T11:54:06;2.75;;;0.90;;
22164;SDS011;11248;52.512;13.520;2023-07-29T11:56:33;1.17;;;0.80;;
22164;SDS011;11248;52.512;13.520;2023-07-29T11:58:59;2.00;;;0.80;;
22164;SDS011;11248;52.512;13.520;2023-07-29T12:01:25;0.98;;;0.68;;
22164;SDS011;11248;52.512;13.520;2023-07-29T12:03:51;0.90;;;0.80;;
22164;SDS011;11248;52.512;13.520;2023-07-29T12:06:17;1.17;;;0.90;;
22164;SDS011;11248;52.512;13.520;2023-07-29T12:08:43;1.83;;;1.08;;
22164;SDS011;11248;52.512;13.520;2023-07-29T12:11:09;1.58;;;0.90;;
22164;SDS011;11248;52.512;13.520;2023-07-29T12:13:38;1.00;;;0.90;;
22164;SDS011;11248;52.512;13.520;2023-07-29T12:16:04;1.00;;;0.90;;
22164;SDS011;11248;52.512;13.520;2023-07-29T12:18:31;0.82;;;0.57;;
22164;SDS011;11248;52.512;13.520;2023-07-29T12:20:57;2.47;;;0.90;;
22164;SDS011;11248;52.512;13.520;2023-07-29T12:23:24;1.67;;;1.27;;
22164;SDS011;11248;52.512;13.520;2023-07-29T12:25:51;3.22;;;0.95;;
22164;SDS011;11248;52.512;13.520;2023-07-29T12:28:17;5.15;;;1.38;;
22164;SDS011;11248;52.512;13.520;2023-07-29T12:30:43;1.05;;;0.82;;
22164;SDS011;11248;52.512;13.520;2023-07-29T12:33:09;1.75;;;1.00;;
22164;SDS011;11248;52.512;13.520;2023-07-29T12:35:36;1.58;;;1.20;;
22164;SDS011;11248;52.512;13.520;2023-07-29T12:38:02;2.08;;;1.10;;
22164;SDS011;11248;52.512;13.520;2023-07-29T12:40:28;1.42;;;1.17;;
22164;SDS011;11248;52.512;13.520;2023-07-29T12:42:54;1.95;;;1.30;;
22164;SDS011;11248;52.512;13.520;2023-07-29T12:45:20;1.65;;;1.00;;
22164;SDS011;11248;52.512;13.520;2023-07-29T12:47:51;2.25;;;1.10;;
22164;SDS011;11248;52.512;13.520;2023-07-29T12:50:17;1.92;;;1.20;;
22164;SDS011;11248;52.512;13.520;2023-07-29T12:52:43;2.20;;;1.33;;
22164;SDS011;11248;52.512;13.520;2023-07-29T12:55:09;2.15;;;1.35;;
22164;SDS011;11248;52.512;13.520;2023-07-29T12:57:38;1.77;;;1.40;;
22164;SDS011;11248;52.512;13.520;2023-07-29T13:00:04;1.65;;;1.35;;
22164;SDS011;11248;52.512;13.520;2023-07-29T13:02:31;1.63;;;1.50;;
22164;SDS011;11248;52.512;13.520;2023-07-29T13:04:57;2.55;;;1.80;;
22164;SDS011;11248;52.512;13.520;2023-07-29T13:07:23;2.25;;;1.50;;
22164;SDS011;11248;52.512;13.520;2023-07-29T13:09:48;1.52;;;1.42;;
22164;SDS011;11248;52.512;13.520;2023-07-29T13:12:14;2.85;;;1.40;;
22164;SDS011;11248;52.512;13.520;2023-07-29T13:14:40;2.17;;;1.42;;
22164;SDS011;11248;52.512;13.520;2023-07-29T13:17:06;2.78;;;1.52;;
22164;SDS011;11248;52.512;13.520;2023-07-29T13:19:32;1.48;;;1.30;;
22164;SDS011;11248;52.512;13.520;2023-07-29T13:21:58;3.15;;;1.50;;
22164;SDS011;11248;52.512;13.520;2023-07-29T13:24:24;1.77;;;1.52;;
22164;SDS011;11248;52.512;13.520;2023-07-29T13:26:50;1.60;;;1.50;;
22164;SDS011;11248;52.512;13.520;2023-07-29T13:29:16;2.28;;;1.67;;
22164;SDS011;11248;52.512;13.520;2023-07-29T13:31:42;1.83;;;1.58;;
22164;SDS011;11248;52.512;13.520;2023-07-29T13:34:07;1.40;;;1.30;;
22164;SDS011;11248;52.512;13.520;2023-07-29T13:36:33;1.55;;;1.33;;
22164;SDS011;11248;52.512;13.520;2023-07-29T13:38:59;2.38;;;1.70;;
22164;SDS011;11248;52.512;13.520;2023-07-29T13:41:25;2.05;;;1.60;;
22164;SDS011;11248;52.512;13.520;2023-07-29T13:43:51;1.98;;;1.55;;
22164;SDS011;11248;52.512;13.520;2023-07-29T13:46:17;1.58;;;1.45;;
22164;SDS011;11248;52.512;13.520;2023-07-29T13:48:46;2.22;;;1.60;;
22164;SDS011;11248;52.512;13.520;2023-07-29T13:51:11;1.50;;;1.40;;
22164;SDS011;11248;52.512;13.520;2023-07-29T13:53:37;1.38;;;1.27;;
22164;SDS011;11248;52.512;13.520;2023-07-29T13:56:04;2.22;;;1.70;;
22164;SDS011;11248;52.512;13.520;2023-07-29T13:58:30;1.50;;;1.40;;
22164;SDS011;11248;52.512;13.520;2023-07-29T14:00:56;1.70;;;1.40;;
22164;SDS011;11248;52.512;13.520;2023-07-29T14:03:22;1.42;;;1.10;;
22164;SDS011;11248;52.512;13.520;2023-07-29T14:05:47;1.58;;;1.48;;
22164;SDS011;11248;52.512;13.520;2023-07-29T14:08:13;1.08;;;1.02;;
22164;SDS011;11248;52.512;13.520;2023-07-29T14:10:39;2.92;;;2.05;;
22164;SDS011;11248;52.512;13.520;2023-07-29T14:13:05;2.83;;;1.33;;
22164;SDS011;11248;52.512;13.520;2023-07-29T14:15:31;1.40;;;1.30;;
22164;SDS011;11248;52.512;13.520;2023-07-29T14:17:57;2.35;;;1.40;;
22164;SDS011;11248;52.512;13.520;2023-07-29T14:20:23;1.10;;;1.00;;
22164;SDS011;11248;52.512;13.520;2023-07-29T14:22:49;1.30;;;1.20;;
22164;SDS011;11248;52.512;13.520;2023-07-29T14:25:15;1.65;;;1.40;;
22164;SDS011;11248;52.512;13.520;2023-07-29T14:27:41;1.25;;;1.00;;
22164;SDS011;11248;52.512;13.520;2023-07-29T14:30:07;0.82;;;0.80;;